Larkspur, Colorado
Current Conditions -  °F | °C
As of 12:13 AM on Saturday 29 Nov 2014 (Local Time) from KMNH Reporting Station
Clear Clear  
Wind Chill: 34°   Ceiling: Unl
Heat Index: 39°   Visibility: 10mi
Dew Point:   Wind: 8mph
Humidity: 26%   Direction: 260°W
Pressure: 29.86"   Gusts: NA
Location:  39.23°N, 104.89°W
Report Text: KMNH 290713Z AUTO 26007KT 10SM CLR 04/M14 A2986 RMK AO2
Loading
Personal Weather Stations






























Interactive Weather Map New forecast layout! Learn more

10-Day Weather Forecast

Advertisements
Track Severe Weather on mobile